Time;durP1;ratioP1;P1;durP2;ratioP2;P2;SDS_P1;SDS_P2;PMS_P1;PMS_P2;Temp;Humidity;BMP_temperature;BMP_pressure;BME280_temperature;BME280_humidity;BME280_pressure;Samples;Min_cycle;Max_cycle;Signal;HPM_P1;HPM_P2
2022/04/20 00:02:08;;;;;;;5.70;2.97;;;11.00;89.30;;;;;;5021140;28;20064;-90
2022/04/20 00:04:35;;;;;;;4.72;2.92;;;11.00;89.40;;;;;;5020700;28;20034;-91
2022/04/20 00:07:01;;;;;;;4.85;2.75;;;11.00;89.60;;;;;;5020821;28;20559;-89
2022/04/20 00:09:26;;;;;;;4.65;2.80;;;11.00;89.70;;;;;;5020995;28;20105;-89
2022/04/20 00:11:52;;;;;;;5.97;2.75;;;10.90;89.70;;;;;;5020864;28;20043;-90
2022/04/20 00:14:26;;;;;;;4.80;2.60;;;10.90;89.60;;;;;;5020810;28;20483;-89
2022/04/20 00:16:52;;;;;;;4.65;2.75;;;10.90;89.80;;;;;;5020479;28;20045;-90
2022/04/20 00:19:18;;;;;;;4.47;2.97;;;10.90;89.80;;;;;;5020639;28;20041;-89
2022/04/20 00:21:44;;;;;;;5.45;2.33;;;10.90;89.80;;;;;;5020164;28;20037;-88
2022/04/20 00:24:09;;;;;;;4.78;2.60;;;10.90;89.90;;;;;;5020055;28;20483;-89
2022/04/20 00:26:35;;;;;;;3.72;2.60;;;10.90;89.80;;;;;;5019761;28;20037;-89
2022/04/20 00:29:01;;;;;;;4.25;2.60;;;10.80;90.00;;;;;;5019976;28;20053;-89
2022/04/20 00:31:26;;;;;;;5.72;2.65;;;10.80;90.00;;;;;;5019592;28;20026;-90
2022/04/20 00:33:55;;;;;;;3.58;2.45;;;10.70;90.00;;;;;;5019666;28;20503;-90
2022/04/20 00:36:21;;;;;;;4.72;2.63;;;10.80;90.00;;;;;;5019415;28;20029;-90
2022/04/20 00:38:47;;;;;;;4.78;2.70;;;10.70;90.10;;;;;;5037490;28;20046;-91
2022/04/20 00:41:12;;;;;;;5.93;2.72;;;10.70;90.10;;;;;;5019601;28;20025;-90
2022/04/20 00:43:38;;;;;;;4.43;2.42;;;10.70;90.20;;;;;;5019609;28;20033;-89
2022/04/20 00:46:05;;;;;;;4.95;2.63;;;10.60;90.20;;;;;;5019795;28;20061;-90
2022/04/20 00:48:35;;;;;;;3.67;2.15;;;10.60;90.30;;;;;;5003551;28;20033;-90
2022/04/20 00:51:01;;;;;;;4.35;2.22;;;10.60;90.20;;;;;;5020085;28;20036;-92
2022/04/20 00:53:27;;;;;;;3.47;2.20;;;10.50;90.30;;;;;;5019439;28;20077;-89
2022/04/20 00:55:52;;;;;;;3.28;2.03;;;10.50;90.30;;;;;;5019660;28;20033;-90
2022/04/20 00:58:18;;;;;;;3.85;2.38;;;10.50;90.30;;;;;;5019922;28;20072;-90
2022/04/20 01:00:45;;;;;;;4.70;2.13;;;10.50;90.30;;;;;;5019836;28;20120;-90
2022/04/20 01:03:10;;;;;;;4.85;2.53;;;10.40;90.50;;;;;;5019496;28;20033;-89
2022/04/20 01:05:36;;;;;;;4.00;2.60;;;10.40;90.50;;;;;;5019990;28;20041;-90
2022/04/20 01:08:05;;;;;;;3.80;1.95;;;10.40;90.50;;;;;;5020108;28;20026;-90
2022/04/20 01:10:32;;;;;;;5.90;1.98;;;10.30;90.50;;;;;;5019756;28;20026;-91
2022/04/20 01:12:58;;;;;;;3.88;1.80;;;10.30;90.60;;;;;;5020095;28;20034;-91
2022/04/20 01:15:24;;;;;;;3.78;1.75;;;10.30;90.70;;;;;;5028644;28;20042;-89
2022/04/20 01:17:49;;;;;;;3.22;1.88;;;10.20;90.70;;;;;;5022021;28;20037;-90
2022/04/20 01:20:16;;;;;;;3.67;1.75;;;10.20;91.00;;;;;;5022333;28;20029;-90
2022/04/20 01:22:42;;;;;;;2.75;1.77;;;10.20;90.70;;;;;;5041020;28;20042;-89
2022/04/20 01:25:08;;;;;;;3.45;2.08;;;10.20;90.70;;;;;;5021310;28;20128;-91
2022/04/20 01:27:36;;;;;;;3.78;2.30;;;10.20;90.70;;;;;;5019962;28;20026;-89
2022/04/20 01:30:03;;;;;;;2.90;1.92;;;10.20;90.70;;;;;;5019853;28;20065;-88
2022/04/20 01:32:29;;;;;;;2.90;1.90;;;10.10;90.90;;;;;;5019281;28;20040;-89
2022/04/20 01:34:54;;;;;;;5.20;2.05;;;10.10;90.90;;;;;;5020151;28;20029;-88
2022/04/20 01:37:20;;;;;;;3.10;1.80;;;10.10;90.80;;;;;;5019090;28;20157;-89
2022/04/20 01:39:46;;;;;;;3.10;1.95;;;10.10;90.90;;;;;;5019059;28;20044;-89
2022/04/20 01:42:11;;;;;;;4.30;2.08;;;10.10;90.90;;;;;;5019089;28;20107;-89
2022/04/20 01:44:37;;;;;;;3.83;2.20;;;10.10;90.90;;;;;;5018617;28;20026;-89
2022/04/20 01:47:03;;;;;;;3.67;2.10;;;10.00;90.80;;;;;;5018956;28;20033;-90
2022/04/20 01:49:29;;;;;;;5.30;2.13;;;10.00;90.80;;;;;;5018715;28;20052;-90
2022/04/20 01:51:55;;;;;;;3.05;1.88;;;10.00;90.80;;;;;;5018743;28;20384;-89
2022/04/20 01:54:21;;;;;;;4.15;2.22;;;10.00;90.80;;;;;;5018979;28;20029;-90
2022/04/20 01:56:51;;;;;;;3.63;1.98;;;10.00;90.70;;;;;;5018373;28;20029;-90
2022/04/20 01:59:17;;;;;;;3.22;2.00;;;10.00;90.70;;;;;;5018319;28;20052;-90
2022/04/20 02:04:27;;;;;;;4.32;2.47;;;10.00;90.90;;;;;;5036184;28;20072;-91
2022/04/20 02:06:53;;;;;;;4.90;2.70;;;9.90;91.00;;;;;;5018152;28;20056;-90
2022/04/20 02:09:18;;;;;;;3.38;2.10;;;9.90;91.00;;;;;;5018085;28;20048;-89
2022/04/20 02:11:44;;;;;;;5.65;2.90;;;9.90;90.90;;;;;;5018176;28;20052;-89
2022/04/20 02:14:10;;;;;;;3.90;2.35;;;9.90;90.90;;;;;;5035712;28;20033;-89
2022/04/20 02:16:36;;;;;;;4.00;2.20;;;9.90;90.90;;;;;;5017988;28;20022;-89
2022/04/20 02:19:03;;;;;;;4.93;2.00;;;9.90;90.80;;;;;;5018039;28;20127;-90
2022/04/20 02:21:29;;;;;;;4.30;2.42;;;9.90;90.90;;;;;;5018202;28;20030;-89
2022/04/20 02:23:55;;;;;;;4.28;2.10;;;9.80;91.00;;;;;;5018455;28;20111;-90
2022/04/20 02:26:20;;;;;;;4.88;2.42;;;9.80;90.90;;;;;;5017814;28;20038;-90
2022/04/20 02:28:46;;;;;;;4.03;2.15;;;9.80;90.80;;;;;;5018520;28;20029;-90
2022/04/20 02:31:12;;;;;;;3.60;1.73;;;9.80;90.80;;;;;;5017872;28;20055;-90
2022/04/20 02:33:37;;;;;;;2.97;1.90;;;9.70;90.80;;;;;;5018028;28;20069;-90
2022/04/20 02:36:04;;;;;;;3.13;1.65;;;9.70;90.90;;;;;;5017545;28;20503;-91
2022/04/20 02:38:30;;;;;;;3.30;1.98;;;9.70;90.80;;;;;;5017305;28;20102;-90
2022/04/20 02:40:56;;;;;;;3.38;1.90;;;9.70;90.90;;;;;;5017942;28;20030;-89
2022/04/20 02:43:21;;;;;;;3.17;1.88;;;9.60;90.90;;;;;;5017394;28;20120;-90
2022/04/20 02:45:47;;;;;;;3.00;1.80;;;9.70;91.00;;;;;;5017636;28;20069;-91
2022/04/20 02:48:16;;;;;;;2.60;1.50;;;9.60;91.10;;;;;;5018164;28;20106;-90
2022/04/20 02:50:43;;;;;;;3.67;2.13;;;9.60;91.10;;;;;;5019333;28;20052;-90
2022/04/20 02:53:08;;;;;;;3.65;1.60;;;9.60;91.20;;;;;;5019126;28;20079;-90
2022/04/20 02:55:38;;;;;;;3.75;1.85;;;9.50;91.20;;;;;;5017794;28;20029;-90
2022/04/20 02:58:03;;;;;;;3.10;1.95;;;9.50;91.10;;;;;;5017302;28;20120;-90
2022/04/20 03:00:29;;;;;;;3.38;2.03;;;9.40;91.10;;;;;;5017570;28;20049;-90
2022/04/20 03:02:54;;;;;;;4.22;2.08;;;9.40;91.20;;;;;;5017582;28;20026;-90
2022/04/20 03:05:20;;;;;;;3.80;2.13;;;9.40;91.20;;;;;;5017345;28;20087;-89
2022/04/20 03:07:46;;;;;;;4.45;2.15;;;9.40;91.20;;;;;;5017721;28;20096;-90
2022/04/20 03:10:11;;;;;;;2.60;1.83;;;9.40;91.30;;;;;;5017239;28;20084;-90
2022/04/20 03:12:38;;;;;;;3.70;2.00;;;9.30;91.30;;;;;;5016519;28;20030;-91
2022/04/20 03:15:07;;;;;;;2.72;1.75;;;9.30;91.30;;;;;;5018628;28;20046;-90
2022/04/20 03:17:32;;;;;;;3.42;1.83;;;9.30;91.30;;;;;;5018778;28;20104;-91
2022/04/20 03:19:58;;;;;;;4.45;1.98;;;9.30;91.30;;;;;;5018489;28;20064;-89
2022/04/20 03:22:23;;;;;;;3.80;2.00;;;9.20;91.20;;;;;;5019093;28;20068;-92
2022/04/20 03:24:49;;;;;;;3.40;2.00;;;9.20;91.20;;;;;;5018623;28;20036;-90
2022/04/20 03:27:15;;;;;;;3.38;1.73;;;9.20;91.30;;;;;;5018720;28;20018;-91
2022/04/20 03:29:41;;;;;;;3.70;2.00;;;9.20;91.30;;;;;;5017305;28;20026;-91
2022/04/20 03:32:12;;;;;;;3.00;1.88;;;9.20;91.30;;;;;;5016890;28;20040;-90
2022/04/20 03:34:39;;;;;;;3.38;1.77;;;9.20;91.30;;;;;;5017204;28;20084;-90
2022/04/20 03:37:06;;;;;;;3.15;1.70;;;9.20;91.40;;;;;;5019911;28;20041;-89
2022/04/20 03:39:32;;;;;;;2.80;1.45;;;9.10;91.40;;;;;;5016728;28;20056;-90
2022/04/20 03:41:58;;;;;;;3.38;2.10;;;9.10;91.40;;;;;;5016879;28;20026;-89
2022/04/20 03:44:27;;;;;;;3.38;1.70;;;9.10;91.60;;;;;;5016672;28;20629;-89
2022/04/20 03:46:53;;;;;;;2.78;1.50;;;9.00;91.60;;;;;;5017326;28;20026;-89
2022/04/20 03:49:19;;;;;;;3.47;1.73;;;9.00;91.60;;;;;;5016808;28;20026;-87
2022/04/20 03:51:46;;;;;;;3.05;1.80;;;9.00;91.90;;;;;;5016653;28;20037;-89
2022/04/20 03:54:13;;;;;;;4.20;2.00;;;9.00;91.70;;;;;;5016641;28;20057;-88
2022/04/20 03:59:23;;;;;;;3.85;2.05;;;8.90;91.80;;;;;;5034279;28;20056;-90
2022/04/20 04:01:49;;;;;;;3.38;2.03;;;8.90;92.00;;;;;;5016468;28;20072;-89
2022/04/20 04:04:15;;;;;;;2.92;1.92;;;8.90;91.70;;;;;;5016370;28;20030;-89
2022/04/20 04:06:40;;;;;;;3.10;1.83;;;8.90;91.70;;;;;;5016062;28;20067;-90
2022/04/20 04:09:06;;;;;;;4.95;2.00;;;8.80;91.70;;;;;;5034068;28;20104;-88
2022/04/20 04:11:32;;;;;;;3.10;1.80;;;8.90;91.60;;;;;;5034051;28;20046;-89
2022/04/20 04:13:58;;;;;;;3.47;2.00;;;8.80;91.60;;;;;;5016219;28;20033;-89
2022/04/20 04:16:24;;;;;;;3.17;2.13;;;8.80;91.70;;;;;;5016413;28;20030;-89
2022/04/20 04:18:50;;;;;;;3.78;1.90;;;8.80;91.70;;;;;;5016116;28;20434;-90
2022/04/20 04:21:16;;;;;;;3.17;1.70;;;8.80;92.00;;;;;;5016310;28;20483;-90
2022/04/20 04:23:42;;;;;;;2.53;1.50;;;8.70;91.80;;;;;;5017006;28;20038;-89
2022/04/20 04:26:08;;;;;;;4.15;1.70;;;8.70;91.80;;;;;;5019776;28;20384;-89
2022/04/20 04:28:33;;;;;;;5.03;2.03;;;8.70;91.90;;;;;;5020288;28;20029;-90
2022/04/20 04:30:59;;;;;;;3.00;1.80;;;8.70;92.00;;;;;;5019744;28;20148;-90
2022/04/20 04:33:24;;;;;;;2.70;1.77;;;8.70;92.00;;;;;;5019846;28;20084;-90
2022/04/20 04:35:50;;;;;;;2.47;1.65;;;8.60;92.00;;;;;;5019627;28;20030;-89
2022/04/20 04:38:16;;;;;;;3.47;1.70;;;8.60;92.10;;;;;;5019265;28;20056;-89
2022/04/20 04:40:42;;;;;;;3.08;1.73;;;8.60;92.20;;;;;;5016889;28;20049;-86
2022/04/20 04:43:08;;;;;;;4.05;1.95;;;8.60;92.20;;;;;;5017161;28;20124;-87
2022/04/20 04:51:03;;;;;;;4.05;2.00;;;8.60;92.30;;;;;;5034712;28;20099;-89
2022/04/20 04:53:29;;;;;;;2.95;1.75;;;8.60;92.30;;;;;;5016766;28;20095;-91
2022/04/20 04:55:54;;;;;;;4.97;2.05;;;8.60;92.30;;;;;;5016908;28;20502;-88
2022/04/20 04:58:20;;;;;;;4.20;2.33;;;8.50;92.20;;;;;;5017675;28;20064;-89
2022/04/20 05:00:45;;;;;;;3.70;1.55;;;8.50;92.10;;;;;;5019062;28;20083;-89
2022/04/20 05:03:14;;;;;;;2.97;1.88;;;8.50;92.50;;;;;;5002976;28;20030;-89
2022/04/20 05:05:41;;;;;;;4.07;2.17;;;8.60;92.40;;;;;;4997800;28;20029;-89
2022/04/20 05:08:07;;;;;;;3.20;1.65;;;8.60;92.20;;;;;;4998104;28;20093;-90
2022/04/20 05:10:33;;;;;;;3.20;1.90;;;8.60;92.20;;;;;;4998103;28;20090;-90
2022/04/20 05:13:00;;;;;;;3.00;1.73;;;8.60;92.20;;;;;;4998048;28;20767;-87
2022/04/20 05:15:27;;;;;;;4.25;1.90;;;8.60;92.10;;;;;;5000723;28;20038;-91
2022/04/20 05:17:53;;;;;;;5.18;1.92;;;8.60;92.10;;;;;;4997732;28;20042;-90
2022/04/20 05:20:19;;;;;;;3.20;1.65;;;8.60;92.10;;;;;;4998109;28;20472;-88
2022/04/20 05:22:46;;;;;;;3.15;1.95;;;8.70;92.20;;;;;;4991154;28;20092;-87
2022/04/20 05:25:12;;;;;;;3.00;1.70;;;8.70;92.20;;;;;;4988294;28;20038;-87
2022/04/20 05:27:38;;;;;;;2.60;1.65;;;8.70;92.10;;;;;;4998398;28;20036;-87
2022/04/20 05:30:05;;;;;;;3.67;1.90;;;8.70;92.20;;;;;;4985215;28;20026;-88
2022/04/20 05:32:31;;;;;;;2.90;1.55;;;8.70;92.10;;;;;;4979860;28;20034;-88
2022/04/20 05:34:56;;;;;;;3.38;1.63;;;8.70;92.00;;;;;;4998501;28;20122;-89
2022/04/20 05:42:52;;;;;;;2.97;1.65;;;8.80;92.20;;;;;;5037054;28;20100;-89
2022/04/20 05:45:18;;;;;;;3.53;1.95;;;8.90;92.10;;;;;;5035786;28;20045;-89
2022/04/20 05:47:45;;;;;;;2.42;1.23;;;8.90;92.20;;;;;;5019210;28;20021;-89
2022/04/20 05:50:10;;;;;;;3.38;1.77;;;9.00;92.10;;;;;;5029653;28;20084;-88
2022/04/20 05:52:36;;;;;;;3.92;1.45;;;8.90;92.10;;;;;;5006212;28;20500;-87
2022/04/20 05:55:02;;;;;;;3.17;1.65;;;9.00;92.10;;;;;;4999501;28;20041;-87
2022/04/20 05:57:28;;;;;;;2.30;1.33;;;9.00;92.20;;;;;;4998620;28;20026;-89
2022/04/20 05:59:54;;;;;;;2.85;1.50;;;9.00;92.10;;;;;;4999970;28;20559;-86
2022/04/20 06:02:19;;;;;;;2.67;1.50;;;9.10;92.40;;;;;;4999232;28;20041;-87
2022/04/20 06:04:45;;;;;;;3.88;1.70;;;9.10;92.20;;;;;;5032808;28;20025;-87
2022/04/20 06:07:11;;;;;;;3.78;1.70;;;9.20;92.10;;;;;;5019784;28;20113;-87
2022/04/20 06:09:36;;;;;;;3.63;1.58;;;9.20;92.10;;;;;;5027029;28;20025;-88
2022/04/20 06:12:02;;;;;;;2.92;1.60;;;9.20;92.10;;;;;;5027540;28;20044;-87
2022/04/20 06:14:28;;;;;;;3.50;1.85;;;9.30;92.00;;;;;;5019836;28;20037;-88
2022/04/20 06:16:54;;;;;;;3.50;1.95;;;9.30;91.90;;;;;;5017672;28;20116;-86
2022/04/20 06:19:19;;;;;;;3.35;1.85;;;9.30;91.70;;;;;;5034558;28;20095;-87
2022/04/20 06:21:45;;;;;;;3.85;1.73;;;9.40;91.70;;;;;;5030120;28;20036;-86
2022/04/20 06:24:10;;;;;;;2.20;1.30;;;9.50;91.70;;;;;;5019221;28;20037;-86
2022/04/20 06:26:36;;;;;;;2.40;1.58;;;9.50;91.70;;;;;;5017188;28;20037;-87
2022/04/20 06:29:02;;;;;;;3.15;1.40;;;9.60;91.70;;;;;;5032204;28;20026;-87
2022/04/20 06:31:27;;;;;;;2.03;1.30;;;9.70;91.70;;;;;;5019209;28;20037;-85
2022/04/20 06:33:58;;;;;;;3.75;1.50;;;9.80;91.70;;;;;;5017046;28;20495;-86
2022/04/20 06:36:24;;;;;;;3.83;1.70;;;9.80;91.60;;;;;;5033788;28;20030;-86
2022/04/20 06:38:50;;;;;;;2.70;1.33;;;9.80;91.60;;;;;;4999927;28;20125;-86
2022/04/20 06:41:16;;;;;;;4.78;2.08;;;9.90;91.70;;;;;;5026554;28;20578;-85
2022/04/20 06:43:42;;;;;;;4.75;1.80;;;9.90;91.10;;;;;;5024671;28;20029;-87
2022/04/20 06:46:07;;;;;;;3.05;1.92;;;9.90;91.40;;;;;;5019872;28;20037;-87
2022/04/20 06:48:33;;;;;;;3.35;2.00;;;10.00;91.20;;;;;;5013048;28;20054;-84
2022/04/20 06:51:00;;;;;;;2.80;1.77;;;10.00;91.20;;;;;;5012687;28;20034;-87
2022/04/20 06:58:54;;;;;;;4.07;1.80;;;10.10;90.90;;;;;;5002768;28;20121;-87
2022/04/20 07:01:20;;;;;;;3.03;2.13;;;10.10;90.90;;;;;;5024029;28;20092;-87
2022/04/20 07:03:45;;;;;;;4.25;1.85;;;10.20;91.00;;;;;;5023969;28;20029;-87
2022/04/20 07:06:11;;;;;;;2.83;1.67;;;10.30;91.10;;;;;;5018695;28;20045;-88
2022/04/20 07:08:37;;;;;;;4.60;2.08;;;10.30;90.60;;;;;;5014986;28;20556;-88
2022/04/20 07:11:03;;;;;;;3.42;1.88;;;10.40;90.50;;;;;;5027826;28;20030;-86
2022/04/20 07:13:29;;;;;;;6.82;2.03;;;10.40;90.60;;;;;;5013594;28;20026;-88
2022/04/20 07:15:55;;;;;;;3.72;1.58;;;10.40;90.60;;;;;;5025524;28;20403;-87
2022/04/20 07:18:21;;;;;;;2.90;1.90;;;10.50;90.80;;;;;;5015975;28;20045;-89
2022/04/20 07:20:46;;;;;;;3.47;1.60;;;10.60;90.80;;;;;;5031007;28;20060;-88
2022/04/20 07:23:12;;;;;;;3.03;1.70;;;10.60;90.70;;;;;;5019469;28;20026;-86
2022/04/20 07:25:38;;;;;;;2.45;1.50;;;10.70;90.70;;;;;;5023254;28;20042;-86
2022/04/20 07:28:05;;;;;;;3.85;1.50;;;10.80;90.90;;;;;;5026120;28;20026;-85
2022/04/20 07:30:32;;;;;;;3.38;2.05;;;10.80;90.80;;;;;;5031504;28;20502;-86
2022/04/20 07:32:57;;;;;;;4.72;1.80;;;10.80;90.70;;;;;;5011571;28;20073;-86
2022/04/20 07:35:23;;;;;;;3.17;1.80;;;10.80;90.70;;;;;;5015655;28;20030;-85
2022/04/20 07:37:49;;;;;;;3.80;2.00;;;10.90;90.90;;;;;;5025914;28;20083;-87
2022/04/20 07:40:15;;;;;;;4.10;2.00;;;11.00;90.60;;;;;;5016105;28;20133;-86
2022/04/20 07:42:41;;;;;;;4.22;1.95;;;11.00;90.80;;;;;;5016366;28;20033;-87
2022/04/20 07:45:08;;;;;;;4.43;1.80;;;11.10;90.80;;;;;;5034035;28;20038;-87
2022/04/20 07:47:34;;;;;;;2.72;1.40;;;11.10;90.70;;;;;;5014993;28;20033;-85
2022/04/20 07:50:18;;;;;;;3.22;1.88;;;11.20;90.80;;;;;;5015617;28;20471;-88
2022/04/20 07:52:49;;;;;;;2.75;1.75;;;11.30;90.90;;;;;;5033693;28;20030;-89
2022/04/20 07:55:17;;;;;;;4.22;2.78;;;11.30;90.90;;;;;;5015645;28;20026;-85
2022/04/20 07:57:43;;;;;;;3.08;1.77;;;11.40;90.90;;;;;;5016522;28;20045;-87
2022/04/20 08:00:11;;;;;;;2.88;1.80;;;11.40;90.70;;;;;;5037070;28;20042;-88
2022/04/20 08:02:36;;;;;;;2.55;1.60;;;11.50;90.70;;;;;;5021792;28;20426;-89
2022/04/20 08:05:02;;;;;;;3.33;1.50;;;11.50;90.60;;;;;;5043456;28;20040;-88
2022/04/20 08:07:30;;;;;;;2.17;1.50;;;11.60;90.60;;;;;;5026538;28;20033;-85
2022/04/20 08:09:56;;;;;;;4.75;1.88;;;11.60;90.60;;;;;;5045034;28;20088;-87
2022/04/20 08:12:24;;;;;;;3.95;2.17;;;11.70;90.40;;;;;;5041347;28;20312;-86
2022/04/20 08:14:51;;;;;;;2.80;1.65;;;11.90;90.20;;;;;;5028745;28;20473;-85
2022/04/20 08:17:17;;;;;;;2.75;1.60;;;11.90;90.20;;;;;;5050220;28;20025;-86
2022/04/20 08:19:43;;;;;;;2.33;1.48;;;12.00;90.00;;;;;;5023281;28;20068;-89
2022/04/20 08:22:08;;;;;;;3.67;1.80;;;12.10;90.00;;;;;;5031826;28;20034;-88
2022/04/20 08:24:37;;;;;;;2.33;1.27;;;12.30;90.00;;;;;;5044334;28;20037;-86
2022/04/20 08:27:02;;;;;;;2.53;1.65;;;12.30;90.00;;;;;;5044098;28;20030;-84
2022/04/20 08:29:28;;;;;;;2.50;1.30;;;12.40;90.00;;;;;;5045086;28;20387;-85
2022/04/20 08:31:54;;;;;;;3.40;1.20;;;12.50;90.00;;;;;;5047307;28;20080;-87
2022/04/20 08:34:19;;;;;;;2.60;1.20;;;12.60;90.10;;;;;;5043824;28;20116;-88
2022/04/20 08:36:45;;;;;;;2.38;1.30;;;12.70;90.10;;;;;;5026780;28;20055;-85
2022/04/20 08:39:11;;;;;;;3.70;1.48;;;12.80;89.50;;;;;;5026487;28;20041;-86
2022/04/20 08:41:36;;;;;;;3.33;1.50;;;12.80;89.50;;;;;;5050010;28;20093;-88
2022/04/20 08:44:04;;;;;;;2.90;1.48;;;12.90;89.30;;;;;;5036379;28;20099;-86
2022/04/20 08:46:37;;;;;;;3.05;2.00;;;13.00;88.60;;;;;;5051752;28;20052;-88
2022/04/20 08:49:04;;;;;;;2.33;1.10;;;13.10;88.30;;;;;;5049775;28;20030;-88
2022/04/20 08:52:37;;;;;;;3.03;1.23;;;13.20;88.30;;;;;;5052057;28;20760;-87
2022/04/20 08:54:17;;;;;;;2.95;1.17;;;13.30;88.30;;;;;;5050855;28;20041;-83
2022/04/20 08:59:31;;;;;;;2.30;1.20;;;13.50;87.00;;;;;;5049938;28;20084;-86
2022/04/20 09:02:00;;;;;;;2.85;1.63;;;13.60;86.50;;;;;;5046490;28;20026;-87
2022/04/20 09:04:26;;;;;;;2.38;1.40;;;13.60;86.50;;;;;;5044303;28;20060;-90
2022/04/20 09:06:54;;;;;;;3.13;1.63;;;13.70;86.00;;;;;;5047768;28;20061;-88
2022/04/20 09:09:28;;;;;;;3.45;1.50;;;13.70;85.60;;;;;;5032775;28;20542;-90
2022/04/20 09:11:57;;;;;;;2.85;1.58;;;13.80;85.40;;;;;;5030185;28;20038;-86
2022/04/20 09:14:23;;;;;;;2.90;1.60;;;13.90;85.60;;;;;;5033220;28;20035;-89
2022/04/20 09:16:57;;;;;;;3.03;1.52;;;14.00;85.50;;;;;;5023378;28;20120;-89
2022/04/20 09:19:28;;;;;;;3.15;1.50;;;14.00;86.00;;;;;;5021463;28;20095;-86
2022/04/20 09:21:55;;;;;;;4.22;2.00;;;14.10;85.40;;;;;;5025863;28;20037;-86
2022/04/20 09:24:21;;;;;;;3.63;1.52;;;14.10;84.40;;;;;;5021941;28;20033;-91
2022/04/20 09:26:56;;;;;;;3.05;1.40;;;14.20;84.10;;;;;;5020081;28;20026;-87
2022/04/20 09:29:22;;;;;;;3.55;1.77;;;14.30;84.60;;;;;;5016935;28;20081;-88
2022/04/20 09:31:53;;;;;;;2.90;1.58;;;14.40;84.60;;;;;;5016563;28;20034;-89
2022/04/20 09:34:24;;;;;;;2.90;1.60;;;14.40;84.10;;;;;;5026823;28;20065;-90
2022/04/20 09:36:51;;;;;;;2.78;1.70;;;14.50;84.90;;;;;;5025171;28;20060;-87
2022/04/20 09:39:16;;;;;;;3.00;1.50;;;15.20;85.90;;;;;;5022105;28;20522;-88
2022/04/20 09:41:59;;;;;;;4.32;1.40;;;16.60;83.70;;;;;;5019822;28;20026;-87
2022/04/20 09:44:30;;;;;;;2.60;1.40;;;18.10;81.60;;;;;;5020192;28;20386;-87
2022/04/20 09:50:03;;;;;;;2.45;1.40;;;20.20;78.80;;;;;;5038405;28;20570;-91
2022/04/20 09:52:42;;;;;;;2.88;1.20;;;21.10;76.20;;;;;;5037600;28;20571;-89
2022/04/20 09:55:11;;;;;;;2.72;1.17;;;21.60;74.30;;;;;;5037778;28;20037;-91
2022/04/20 09:57:39;;;;;;;2.97;1.50;;;21.90;73.50;;;;;;5020321;28;20034;-89
2022/04/20 10:00:24;;;;;;;2.15;1.20;;;22.20;72.00;;;;;;5021396;28;20125;-92
2022/04/20 10:03:09;;;;;;;2.70;1.25;;;22.50;70.90;;;;;;5131407;22;20451;-91
2022/04/20 10:05:37;;;;;;;1.35;1.00;;;22.80;69.50;;;;;;5044806;28;20037;-87
2022/04/20 10:08:07;;;;;;;2.83;1.48;;;23.20;68.90;;;;;;5064145;28;20395;-90
2022/04/20 10:10:35;;;;;;;2.53;1.38;;;23.40;67.50;;;;;;5045821;28;20029;-91
2022/04/20 10:13:03;;;;;;;2.45;1.10;;;23.50;66.40;;;;;;5042041;28;20036;-89
2022/04/20 10:18:21;;;;;;;2.25;1.30;;;24.10;66.00;;;;;;5048957;28;20067;-89
2022/04/20 10:20:55;;;;;;;3.95;1.23;;;24.40;64.90;;;;;;5060370;28;20399;-89
2022/04/20 10:23:36;;;;;;;2.92;1.25;;;24.70;64.10;;;;;;5061050;28;20029;-90
2022/04/20 10:26:07;;;;;;;3.88;1.23;;;24.70;63.80;;;;;;5033079;28;20384;-89
2022/04/20 10:29:16;;;;;;;2.97;1.48;;;25.00;63.80;;;;;;5053912;28;20048;-88
2022/04/20 10:31:58;;;;;;;2.50;1.40;;;25.20;63.10;;;;;;5028110;28;20044;-87
2022/04/20 10:34:25;;;;;;;1.70;1.10;;;25.20;61.70;;;;;;5053767;28;20082;-90
2022/04/20 10:37:04;;;;;;;2.10;1.35;;;25.20;62.50;;;;;;5054664;28;20036;-88
2022/04/20 10:39:41;;;;;;;2.78;1.52;;;25.40;62.10;;;;;;5035571;28;20083;-90
2022/04/20 10:42:21;;;;;;;2.17;1.10;;;25.50;61.70;;;;;;5057222;28;20644;-86
2022/04/20 10:44:51;;;;;;;2.38;1.10;;;25.60;61.70;;;;;;5158156;22;20041;-87
2022/04/20 10:47:45;;;;;;;2.33;1.00;;;25.70;61.00;;;;;;5039134;28;20036;-91
2022/04/20 10:50:19;;;;;;;3.63;2.00;;;25.80;60.40;;;;;;5045082;28;20096;-88
2022/04/20 10:52:58;;;;;;;2.55;1.20;;;26.20;59.80;;;;;;5065173;28;20045;-89
2022/04/20 10:55:44;;;;;;;1.60;1.02;;;26.40;60.00;;;;;;5056825;28;20501;-90
2022/04/20 10:58:18;;;;;;;1.80;1.17;;;26.60;58.90;;;;;;5019215;28;20569;-88
2022/04/20 11:00:44;;;;;;;2.13;1.23;;;26.60;58.50;;;;;;5054066;28;20029;-88
2022/04/20 11:03:12;;;;;;;2.47;1.30;;;26.50;58.60;;;;;;5036904;28;20049;-89
2022/04/20 11:05:55;;;;;;;2.63;1.23;;;26.60;59.00;;;;;;5054947;28;20382;-89
2022/04/20 11:08:25;;;;;;;3.08;1.15;;;26.60;59.10;;;;;;5055545;28;20033;-90
2022/04/20 11:19:57;;;;;;;3.30;1.58;;;26.70;57.20;;;;;;5057295;28;20044;-85
2022/04/20 11:22:25;;;;;;;2.25;1.30;;;26.40;56.70;;;;;;5041026;28;20464;-88
2022/04/20 11:25:06;;;;;;;2.40;1.20;;;26.30;57.10;;;;;;5053389;28;20029;-89
2022/04/20 11:27:36;;;;;;;2.35;1.30;;;26.40;57.50;;;;;;5053503;28;20032;-88
2022/04/20 11:30:04;;;;;;;3.10;1.40;;;26.70;56.10;;;;;;5054320;28;20037;-88
2022/04/20 11:32:31;;;;;;;2.50;1.27;;;26.50;55.80;;;;;;5052484;28;20063;-87
2022/04/20 11:35:07;;;;;;;1.63;1.10;;;26.50;56.50;;;;;;5052320;28;20029;-87
2022/04/20 11:37:37;;;;;;;2.28;1.20;;;26.90;56.90;;;;;;5036028;28;20037;-86
2022/04/20 11:40:12;;;;;;;1.60;1.20;;;27.10;56.20;;;;;;5049762;28;20400;-88
2022/04/20 11:42:39;;;;;;;3.60;1.20;;;27.30;56.00;;;;;;5036349;28;20060;-87
2022/04/20 11:45:06;;;;;;;2.95;1.20;;;27.40;56.10;;;;;;5027356;28;20160;-85
2022/04/20 11:47:39;;;;;;;2.08;1.05;;;27.50;55.90;;;;;;5052855;28;20033;-89
2022/04/20 11:50:08;;;;;;;;;;;27.60;56.00;;;;;;5055729;28;20031;-85
2022/04/20 11:52:33;;;;;;;2.58;1.20;;;27.60;56.40;;;;;;5034665;28;19928;-88
2022/04/20 11:55:05;;;;;;;3.47;1.60;;;27.80;56.60;;;;;;5052911;28;20457;-87
2022/04/20 11:57:30;;;;;;;2.90;1.40;;;27.80;55.20;;;;;;5054507;28;20033;-86
2022/04/20 11:59:59;;;;;;;2.08;1.08;;;27.60;55.80;;;;;;5037978;28;20167;-92
2022/04/20 12:02:25;;;;;;;1.92;1.08;;;27.80;56.10;;;;;;5036990;28;20025;-88
2022/04/20 12:05:05;;;;;;;2.65;1.48;;;28.00;56.30;;;;;;5054423;28;20370;-88
2022/04/20 12:07:32;;;;;;;2.42;1.15;;;27.70;53.40;;;;;;5056906;28;20082;-87
2022/04/20 12:09:58;;;;;;;3.90;1.15;;;27.40;54.80;;;;;;5053312;28;20034;-86
2022/04/20 12:12:25;;;;;;;3.08;1.30;;;27.50;54.80;;;;;;5052936;28;20036;-88
2022/04/20 12:14:52;;;;;;;2.03;1.50;;;27.50;54.40;;;;;;5035116;28;20310;-86
2022/04/20 12:17:20;;;;;;;2.95;1.30;;;27.50;55.80;;;;;;5042206;28;20471;-86
2022/04/20 12:19:46;;;;;;;3.33;1.27;;;27.70;55.70;;;;;;5035350;28;20037;-84
2022/04/20 12:22:17;;;;;;;2.75;1.55;;;28.00;55.50;;;;;;5055056;28;20032;-88
2022/04/20 12:24:43;;;;;;;3.10;1.30;;;27.80;54.50;;;;;;5053213;28;20041;-86
2022/04/20 12:27:20;;;;;;;2.47;1.50;;;27.60;54.10;;;;;;5061568;28;20105;-87
2022/04/20 12:29:58;;;;;;;3.10;1.58;;;27.30;54.30;;;;;;5053617;28;20123;-85
2022/04/20 12:32:33;;;;;;;2.00;1.15;;;27.30;55.80;;;;;;5020605;28;20499;-86
2022/04/20 12:35:02;;;;;;;3.03;1.50;;;27.60;55.10;;;;;;5046330;28;20021;-87
2022/04/20 12:37:29;;;;;;;1.80;1.15;;;27.70;54.60;;;;;;5035375;28;20119;-86
2022/04/20 12:39:56;;;;;;;3.22;1.58;;;27.60;54.70;;;;;;5035903;28;20037;-88
2022/04/20 12:42:23;;;;;;;3.05;1.50;;;27.70;55.30;;;;;;5035947;28;20501;-86
2022/04/20 12:44:57;;;;;;;2.47;1.30;;;27.60;56.00;;;;;;5048423;28;20055;-86
2022/04/20 12:47:26;;;;;;;2.97;1.38;;;27.70;55.40;;;;;;5039198;28;20037;-87
2022/04/20 12:50:00;;;;;;;4.13;1.15;;;27.70;55.70;;;;;;5056884;28;20041;-88
2022/04/20 12:52:29;;;;;;;3.33;1.10;;;27.90;55.40;;;;;;5058866;28;20029;-84
2022/04/20 12:54:58;;;;;;;2.58;1.40;;;28.20;55.40;;;;;;5069947;22;20532;-85
2022/04/20 13:03:10;;;;;;;2.20;1.10;;;28.30;55.10;;;;;;5078470;28;20063;-86
2022/04/20 13:05:38;;;;;;;3.83;1.10;;;28.30;54.90;;;;;;5078146;28;20115;-87
2022/04/20 13:08:05;;;;;;;3.53;2.47;;;28.40;55.20;;;;;;5078427;28;20111;-88
2022/04/20 13:10:34;;;;;;;2.38;1.05;;;28.30;54.00;;;;;;5071824;28;20029;-88
2022/04/20 13:13:00;;;;;;;2.90;1.50;;;28.20;55.50;;;;;;5060165;28;20124;-87
2022/04/20 13:15:29;;;;;;;2.97;1.20;;;28.30;56.20;;;;;;5067335;28;20071;-87
2022/04/20 13:17:56;;;;;;;1.38;1.00;;;28.40;56.00;;;;;;5059314;28;20036;-88
2022/04/20 13:20:22;;;;;;;1.20;1.02;;;28.60;56.80;;;;;;5075213;28;20146;-87
2022/04/20 13:22:48;;;;;;;3.95;1.20;;;28.60;55.30;;;;;;5076469;28;20678;-88
2022/04/20 13:27:58;;;;;;;2.72;1.25;;;28.60;55.50;;;;;;5072474;28;20082;-82
2022/04/20 13:30:29;;;;;;;2.80;0.90;;;28.70;54.70;;;;;;5072422;28;20076;-86
2022/04/20 13:32:56;;;;;;;1.65;1.27;;;28.80;55.40;;;;;;5072702;28;20112;-85
2022/04/20 13:35:25;;;;;;;1.98;1.00;;;28.70;55.40;;;;;;5053310;28;20099;-87
2022/04/20 13:37:52;;;;;;;2.58;1.02;;;28.70;55.40;;;;;;5053694;28;20094;-86
2022/04/20 13:40:18;;;;;;;4.07;1.10;;;28.70;55.00;;;;;;5062843;28;20043;-88
2022/04/20 13:42:44;;;;;;;2.67;1.10;;;28.70;55.00;;;;;;5076816;28;20072;-87